sensor_id;sensor_type;location;lat;lon;timestamp;P1;durP1;ratioP1;P2;durP2;ratioP2
69126;SDS011;56688;50.234;19.292;2024-01-30T00:00:37;69.00;;;31.20;;
69126;SDS011;56688;50.234;19.292;2024-01-30T00:03:05;68.10;;;31.30;;
69126;SDS011;56688;50.234;19.292;2024-01-30T00:05:33;71.00;;;32.20;;
69126;SDS011;56688;50.234;19.292;2024-01-30T00:08:00;76.20;;;31.70;;
69126;SDS011;56688;50.234;19.292;2024-01-30T00:10:27;62.80;;;31.00;;
69126;SDS011;56688;50.234;19.292;2024-01-30T00:12:54;69.50;;;31.30;;
69126;SDS011;56688;50.234;19.292;2024-01-30T00:15:21;68.40;;;30.60;;
69126;SDS011;56688;50.234;19.292;2024-01-30T00:17:48;71.70;;;31.30;;
69126;SDS011;56688;50.234;19.292;2024-01-30T00:20:15;71.30;;;31.50;;
69126;SDS011;56688;50.234;19.292;2024-01-30T00:22:43;68.60;;;30.50;;
69126;SDS011;56688;50.234;19.292;2024-01-30T00:25:09;69.20;;;30.50;;
69126;SDS011;56688;50.234;19.292;2024-01-30T00:27:36;67.90;;;29.00;;
69126;SDS011;56688;50.234;19.292;2024-01-30T00:30:04;64.10;;;31.60;;
69126;SDS011;56688;50.234;19.292;2024-01-30T00:32:31;67.40;;;32.00;;
69126;SDS011;56688;50.234;19.292;2024-01-30T00:34:58;71.80;;;32.90;;
69126;SDS011;56688;50.234;19.292;2024-01-30T00:37:26;65.20;;;31.70;;
69126;SDS011;56688;50.234;19.292;2024-01-30T00:39:53;71.60;;;32.40;;
69126;SDS011;56688;50.234;19.292;2024-01-30T00:42:20;79.50;;;36.10;;
69126;SDS011;56688;50.234;19.292;2024-01-30T00:44:47;72.20;;;33.90;;
69126;SDS011;56688;50.234;19.292;2024-01-30T00:47:14;71.70;;;33.70;;
69126;SDS011;56688;50.234;19.292;2024-01-30T00:49:41;69.50;;;34.40;;
69126;SDS011;56688;50.234;19.292;2024-01-30T00:52:08;74.10;;;33.80;;
69126;SDS011;56688;50.234;19.292;2024-01-30T00:54:35;83.60;;;36.90;;
69126;SDS011;56688;50.234;19.292;2024-01-30T00:57:02;84.40;;;36.30;;
69126;SDS011;56688;50.234;19.292;2024-01-30T00:59:30;72.00;;;33.60;;
69126;SDS011;56688;50.234;19.292;2024-01-30T01:01:56;78.20;;;35.90;;
69126;SDS011;56688;50.234;19.292;2024-01-30T01:04:23;76.30;;;36.30;;
69126;SDS011;56688;50.234;19.292;2024-01-30T01:06:50;73.40;;;34.30;;
69126;SDS011;56688;50.234;19.292;2024-01-30T01:09:17;79.80;;;37.40;;
69126;SDS011;56688;50.234;19.292;2024-01-30T01:11:44;78.80;;;37.20;;
69126;SDS011;56688;50.234;19.292;2024-01-30T01:14:12;75.70;;;33.80;;
69126;SDS011;56688;50.234;19.292;2024-01-30T01:16:39;75.00;;;36.20;;
69126;SDS011;56688;50.234;19.292;2024-01-30T01:19:06;76.20;;;34.00;;
69126;SDS011;56688;50.234;19.292;2024-01-30T01:21:33;75.30;;;35.10;;
69126;SDS011;56688;50.234;19.292;2024-01-30T01:24:00;77.00;;;35.90;;
69126;SDS011;56688;50.234;19.292;2024-01-30T01:26:27;75.10;;;32.80;;
69126;SDS011;56688;50.234;19.292;2024-01-30T01:28:53;82.80;;;33.20;;
69126;SDS011;56688;50.234;19.292;2024-01-30T01:31:20;76.50;;;34.50;;
69126;SDS011;56688;50.234;19.292;2024-01-30T01:33:51;75.70;;;34.00;;
69126;SDS011;56688;50.234;19.292;2024-01-30T01:36:18;68.00;;;33.50;;
69126;SDS011;56688;50.234;19.292;2024-01-30T01:38:45;77.70;;;35.90;;
69126;SDS011;56688;50.234;19.292;2024-01-30T01:41:12;74.80;;;36.20;;
69126;SDS011;56688;50.234;19.292;2024-01-30T01:43:39;82.50;;;36.20;;
69126;SDS011;56688;50.234;19.292;2024-01-30T01:46:06;85.40;;;38.90;;
69126;SDS011;56688;50.234;19.292;2024-01-30T01:48:34;84.50;;;36.40;;
69126;SDS011;56688;50.234;19.292;2024-01-30T01:51:02;87.00;;;34.90;;
69126;SDS011;56688;50.234;19.292;2024-01-30T01:53:29;76.60;;;35.80;;
69126;SDS011;56688;50.234;19.292;2024-01-30T01:55:56;76.90;;;36.10;;
69126;SDS011;56688;50.234;19.292;2024-01-30T01:58:24;87.20;;;36.50;;
69126;SDS011;56688;50.234;19.292;2024-01-30T02:00:56;86.30;;;38.50;;
69126;SDS011;56688;50.234;19.292;2024-01-30T02:03:23;82.10;;;38.00;;
69126;SDS011;56688;50.234;19.292;2024-01-30T02:05:50;84.60;;;40.00;;
69126;SDS011;56688;50.234;19.292;2024-01-30T02:08:18;74.10;;;37.00;;
69126;SDS011;56688;50.234;19.292;2024-01-30T02:10:45;80.70;;;38.50;;
69126;SDS011;56688;50.234;19.292;2024-01-30T02:13:12;75.70;;;38.40;;
69126;SDS011;56688;50.234;19.292;2024-01-30T02:15:39;80.20;;;38.80;;
69126;SDS011;56688;50.234;19.292;2024-01-30T02:18:06;81.20;;;36.90;;
69126;SDS011;56688;50.234;19.292;2024-01-30T02:20:34;78.00;;;37.20;;
69126;SDS011;56688;50.234;19.292;2024-01-30T02:23:02;78.90;;;37.00;;
69126;SDS011;56688;50.234;19.292;2024-01-30T02:25:31;83.30;;;37.40;;
69126;SDS011;56688;50.234;19.292;2024-01-30T02:28:12;87.70;;;36.40;;
69126;SDS011;56688;50.234;19.292;2024-01-30T02:30:39;76.20;;;34.20;;
69126;SDS011;56688;50.234;19.292;2024-01-30T02:33:07;71.90;;;34.90;;
69126;SDS011;56688;50.234;19.292;2024-01-30T02:35:34;65.80;;;33.30;;
69126;SDS011;56688;50.234;19.292;2024-01-30T02:38:01;76.10;;;34.80;;
69126;SDS011;56688;50.234;19.292;2024-01-30T02:40:28;73.20;;;34.00;;
69126;SDS011;56688;50.234;19.292;2024-01-30T02:42:56;68.60;;;32.80;;
69126;SDS011;56688;50.234;19.292;2024-01-30T02:45:23;76.30;;;35.00;;
69126;SDS011;56688;50.234;19.292;2024-01-30T02:47:50;78.80;;;33.60;;
69126;SDS011;56688;50.234;19.292;2024-01-30T02:50:17;73.40;;;33.00;;
69126;SDS011;56688;50.234;19.292;2024-01-30T02:52:45;72.30;;;32.80;;
69126;SDS011;56688;50.234;19.292;2024-01-30T02:55:12;67.20;;;31.20;;
69126;SDS011;56688;50.234;19.292;2024-01-30T02:57:39;65.10;;;29.00;;
69126;SDS011;56688;50.234;19.292;2024-01-30T03:00:07;73.70;;;32.60;;
69126;SDS011;56688;50.234;19.292;2024-01-30T03:02:36;70.30;;;33.50;;
69126;SDS011;56688;50.234;19.292;2024-01-30T03:05:04;73.10;;;32.70;;
69126;SDS011;56688;50.234;19.292;2024-01-30T03:07:32;77.40;;;34.20;;
69126;SDS011;56688;50.234;19.292;2024-01-30T03:10:00;70.40;;;33.90;;
69126;SDS011;56688;50.234;19.292;2024-01-30T03:12:27;78.40;;;35.10;;
69126;SDS011;56688;50.234;19.292;2024-01-30T03:14:54;79.40;;;34.60;;
69126;SDS011;56688;50.234;19.292;2024-01-30T03:17:21;78.30;;;35.00;;
69126;SDS011;56688;50.234;19.292;2024-01-30T03:19:48;67.70;;;32.20;;
69126;SDS011;56688;50.234;19.292;2024-01-30T03:22:15;66.70;;;31.40;;
69126;SDS011;56688;50.234;19.292;2024-01-30T03:24:43;75.00;;;33.30;;
69126;SDS011;56688;50.234;19.292;2024-01-30T03:27:10;69.80;;;31.40;;
69126;SDS011;56688;50.234;19.292;2024-01-30T03:29:37;69.40;;;30.00;;
69126;SDS011;56688;50.234;19.292;2024-01-30T03:32:04;61.00;;;27.90;;
69126;SDS011;56688;50.234;19.292;2024-01-30T03:34:31;74.70;;;31.70;;
69126;SDS011;56688;50.234;19.292;2024-01-30T03:36:59;69.90;;;31.50;;
69126;SDS011;56688;50.234;19.292;2024-01-30T03:39:26;74.10;;;33.40;;
69126;SDS011;56688;50.234;19.292;2024-01-30T03:41:53;72.20;;;31.40;;
69126;SDS011;56688;50.234;19.292;2024-01-30T03:44:20;75.10;;;32.30;;
69126;SDS011;56688;50.234;19.292;2024-01-30T03:46:47;69.70;;;32.40;;
69126;SDS011;56688;50.234;19.292;2024-01-30T03:49:14;71.60;;;31.70;;
69126;SDS011;56688;50.234;19.292;2024-01-30T03:51:42;72.70;;;33.80;;
69126;SDS011;56688;50.234;19.292;2024-01-30T03:54:09;77.90;;;33.70;;
69126;SDS011;56688;50.234;19.292;2024-01-30T03:56:37;81.10;;;35.30;;
69126;SDS011;56688;50.234;19.292;2024-01-30T03:59:04;80.70;;;33.50;;
69126;SDS011;56688;50.234;19.292;2024-01-30T04:01:31;76.80;;;33.70;;
69126;SDS011;56688;50.234;19.292;2024-01-30T04:03:58;74.10;;;32.30;;
69126;SDS011;56688;50.234;19.292;2024-01-30T04:06:26;67.10;;;30.90;;
69126;SDS011;56688;50.234;19.292;2024-01-30T04:08:54;63.20;;;31.00;;
69126;SDS011;56688;50.234;19.292;2024-01-30T04:11:20;75.30;;;32.80;;
69126;SDS011;56688;50.234;19.292;2024-01-30T04:13:49;78.70;;;32.40;;
69126;SDS011;56688;50.234;19.292;2024-01-30T04:16:20;71.00;;;33.00;;
69126;SDS011;56688;50.234;19.292;2024-01-30T04:18:49;68.20;;;31.20;;
69126;SDS011;56688;50.234;19.292;2024-01-30T04:21:16;71.30;;;32.60;;
69126;SDS011;56688;50.234;19.292;2024-01-30T04:23:43;68.60;;;31.70;;
69126;SDS011;56688;50.234;19.292;2024-01-30T04:26:11;65.80;;;32.20;;
69126;SDS011;56688;50.234;19.292;2024-01-30T04:28:37;67.10;;;30.60;;
69126;SDS011;56688;50.234;19.292;2024-01-30T04:31:04;68.50;;;30.20;;
69126;SDS011;56688;50.234;19.292;2024-01-30T04:33:31;71.50;;;31.80;;
69126;SDS011;56688;50.234;19.292;2024-01-30T04:35:58;74.50;;;32.30;;
69126;SDS011;56688;50.234;19.292;2024-01-30T04:38:25;72.60;;;31.60;;
69126;SDS011;56688;50.234;19.292;2024-01-30T04:40:52;68.30;;;30.50;;
69126;SDS011;56688;50.234;19.292;2024-01-30T04:43:19;61.90;;;30.40;;
69126;SDS011;56688;50.234;19.292;2024-01-30T04:45:48;62.60;;;29.60;;
69126;SDS011;56688;50.234;19.292;2024-01-30T04:48:16;68.40;;;30.40;;
69126;SDS011;56688;50.234;19.292;2024-01-30T04:50:43;67.00;;;31.10;;
69126;SDS011;56688;50.234;19.292;2024-01-30T04:53:10;68.10;;;30.90;;
69126;SDS011;56688;50.234;19.292;2024-01-30T04:55:37;64.50;;;29.50;;
69126;SDS011;56688;50.234;19.292;2024-01-30T04:58:04;66.70;;;29.90;;
69126;SDS011;56688;50.234;19.292;2024-01-30T05:00:31;61.20;;;28.90;;
69126;SDS011;56688;50.234;19.292;2024-01-30T05:02:58;64.00;;;28.80;;
69126;SDS011;56688;50.234;19.292;2024-01-30T05:05:25;62.70;;;27.90;;
69126;SDS011;56688;50.234;19.292;2024-01-30T05:07:52;62.20;;;26.90;;
69126;SDS011;56688;50.234;19.292;2024-01-30T05:10:19;68.70;;;29.90;;
69126;SDS011;56688;50.234;19.292;2024-01-30T05:12:46;66.10;;;31.00;;
69126;SDS011;56688;50.234;19.292;2024-01-30T05:15:13;68.50;;;31.00;;
69126;SDS011;56688;50.234;19.292;2024-01-30T05:17:40;62.20;;;30.20;;
69126;SDS011;56688;50.234;19.292;2024-01-30T05:20:07;62.80;;;30.40;;
69126;SDS011;56688;50.234;19.292;2024-01-30T05:22:36;61.60;;;29.70;;
69126;SDS011;56688;50.234;19.292;2024-01-30T05:25:04;68.40;;;30.70;;
69126;SDS011;56688;50.234;19.292;2024-01-30T05:27:31;69.90;;;31.80;;
69126;SDS011;56688;50.234;19.292;2024-01-30T05:29:58;76.80;;;34.80;;
69126;SDS011;56688;50.234;19.292;2024-01-30T05:32:25;79.60;;;33.10;;
69126;SDS011;56688;50.234;19.292;2024-01-30T05:34:52;77.80;;;34.40;;
69126;SDS011;56688;50.234;19.292;2024-01-30T05:37:19;70.60;;;32.00;;
69126;SDS011;56688;50.234;19.292;2024-01-30T05:39:46;64.20;;;31.10;;
69126;SDS011;56688;50.234;19.292;2024-01-30T05:42:13;66.10;;;32.20;;
69126;SDS011;56688;50.234;19.292;2024-01-30T05:44:39;68.20;;;31.50;;
69126;SDS011;56688;50.234;19.292;2024-01-30T05:47:06;67.10;;;29.80;;
69126;SDS011;56688;50.234;19.292;2024-01-30T05:49:33;62.80;;;30.40;;
69126;SDS011;56688;50.234;19.292;2024-01-30T05:52:03;61.70;;;31.40;;
69126;SDS011;56688;50.234;19.292;2024-01-30T05:54:30;71.00;;;32.20;;
69126;SDS011;56688;50.234;19.292;2024-01-30T05:56:57;74.10;;;32.60;;
69126;SDS011;56688;50.234;19.292;2024-01-30T05:59:24;69.20;;;32.40;;
69126;SDS011;56688;50.234;19.292;2024-01-30T06:01:51;67.60;;;29.90;;
69126;SDS011;56688;50.234;19.292;2024-01-30T06:04:18;73.50;;;31.40;;
69126;SDS011;56688;50.234;19.292;2024-01-30T06:06:45;68.70;;;30.20;;
69126;SDS011;56688;50.234;19.292;2024-01-30T06:09:12;61.50;;;28.90;;
69126;SDS011;56688;50.234;19.292;2024-01-30T06:11:39;66.20;;;31.30;;
69126;SDS011;56688;50.234;19.292;2024-01-30T06:14:06;63.20;;;27.90;;
69126;SDS011;56688;50.234;19.292;2024-01-30T06:16:33;71.90;;;26.80;;
69126;SDS011;56688;50.234;19.292;2024-01-30T06:19:00;67.00;;;29.00;;
69126;SDS011;56688;50.234;19.292;2024-01-30T06:21:27;67.60;;;29.90;;
69126;SDS011;56688;50.234;19.292;2024-01-30T06:23:54;67.70;;;30.30;;
69126;SDS011;56688;50.234;19.292;2024-01-30T06:26:21;72.20;;;31.70;;
69126;SDS011;56688;50.234;19.292;2024-01-30T06:28:48;76.40;;;31.30;;
69126;SDS011;56688;50.234;19.292;2024-01-30T06:31:16;60.40;;;28.30;;
69126;SDS011;56688;50.234;19.292;2024-01-30T06:33:43;67.20;;;30.30;;
69126;SDS011;56688;50.234;19.292;2024-01-30T06:36:10;65.80;;;30.10;;
69126;SDS011;56688;50.234;19.292;2024-01-30T06:38:37;65.30;;;28.70;;
69126;SDS011;56688;50.234;19.292;2024-01-30T06:41:04;66.90;;;30.70;;
69126;SDS011;56688;50.234;19.292;2024-01-30T06:43:31;73.60;;;31.50;;
69126;SDS011;56688;50.234;19.292;2024-01-30T06:45:58;77.30;;;31.60;;
69126;SDS011;56688;50.234;19.292;2024-01-30T06:48:26;75.40;;;33.90;;
69126;SDS011;56688;50.234;19.292;2024-01-30T06:50:53;78.80;;;34.80;;
69126;SDS011;56688;50.234;19.292;2024-01-30T06:53:20;82.10;;;37.00;;
69126;SDS011;56688;50.234;19.292;2024-01-30T06:55:47;78.10;;;38.80;;
69126;SDS011;56688;50.234;19.292;2024-01-30T06:58:14;81.20;;;36.50;;
69126;SDS011;56688;50.234;19.292;2024-01-30T07:00:41;77.00;;;36.00;;
69126;SDS011;56688;50.234;19.292;2024-01-30T07:03:08;72.80;;;34.30;;
69126;SDS011;56688;50.234;19.292;2024-01-30T07:05:35;71.50;;;33.70;;
69126;SDS011;56688;50.234;19.292;2024-01-30T07:08:02;77.70;;;33.10;;
69126;SDS011;56688;50.234;19.292;2024-01-30T07:10:29;69.50;;;32.30;;
69126;SDS011;56688;50.234;19.292;2024-01-30T07:12:58;71.20;;;33.90;;
69126;SDS011;56688;50.234;19.292;2024-01-30T07:15:27;74.60;;;32.80;;
69126;SDS011;56688;50.234;19.292;2024-01-30T07:17:54;74.40;;;34.20;;
69126;SDS011;56688;50.234;19.292;2024-01-30T07:20:20;83.90;;;38.30;;
69126;SDS011;56688;50.234;19.292;2024-01-30T07:22:48;98.30;;;45.00;;
69126;SDS011;56688;50.234;19.292;2024-01-30T07:25:15;87.10;;;42.00;;
69126;SDS011;56688;50.234;19.292;2024-01-30T07:27:43;71.20;;;34.70;;
69126;SDS011;56688;50.234;19.292;2024-01-30T07:30:10;69.50;;;32.80;;
69126;SDS011;56688;50.234;19.292;2024-01-30T07:32:38;71.80;;;34.10;;
69126;SDS011;56688;50.234;19.292;2024-01-30T07:35:05;68.50;;;34.10;;
69126;SDS011;56688;50.234;19.292;2024-01-30T07:37:34;75.10;;;33.40;;
69126;SDS011;56688;50.234;19.292;2024-01-30T07:40:02;80.00;;;37.40;;
69126;SDS011;56688;50.234;19.292;2024-01-30T07:42:30;72.70;;;36.00;;
69126;SDS011;56688;50.234;19.292;2024-01-30T07:44:57;76.30;;;36.30;;
69126;SDS011;56688;50.234;19.292;2024-01-30T07:47:24;84.00;;;38.90;;
69126;SDS011;56688;50.234;19.292;2024-01-30T07:49:51;81.00;;;36.30;;
69126;SDS011;56688;50.234;19.292;2024-01-30T07:52:19;69.60;;;32.50;;
69126;SDS011;56688;50.234;19.292;2024-01-30T07:54:46;70.80;;;34.60;;
69126;SDS011;56688;50.234;19.292;2024-01-30T07:57:13;72.20;;;35.40;;
69126;SDS011;56688;50.234;19.292;2024-01-30T07:59:42;68.80;;;33.80;;
69126;SDS011;56688;50.234;19.292;2024-01-30T08:02:11;64.80;;;31.50;;
69126;SDS011;56688;50.234;19.292;2024-01-30T08:04:39;72.00;;;33.40;;
69126;SDS011;56688;50.234;19.292;2024-01-30T08:07:07;65.20;;;34.10;;
69126;SDS011;56688;50.234;19.292;2024-01-30T08:09:34;66.70;;;33.90;;
69126;SDS011;56688;50.234;19.292;2024-01-30T08:12:01;61.10;;;33.40;;
69126;SDS011;56688;50.234;19.292;2024-01-30T08:14:28;63.70;;;32.90;;
69126;SDS011;56688;50.234;19.292;2024-01-30T08:16:55;66.50;;;34.60;;
69126;SDS011;56688;50.234;19.292;2024-01-30T08:19:22;68.00;;;35.30;;
69126;SDS011;56688;50.234;19.292;2024-01-30T08:21:49;65.70;;;34.00;;
69126;SDS011;56688;50.234;19.292;2024-01-30T08:24:16;71.00;;;37.20;;
69126;SDS011;56688;50.234;19.292;2024-01-30T08:26:43;71.60;;;37.20;;
69126;SDS011;56688;50.234;19.292;2024-01-30T08:29:10;62.00;;;33.80;;
69126;SDS011;56688;50.234;19.292;2024-01-30T08:31:37;60.10;;;32.20;;
69126;SDS011;56688;50.234;19.292;2024-01-30T08:34:04;62.30;;;32.20;;
69126;SDS011;56688;50.234;19.292;2024-01-30T08:36:31;33.30;;;18.50;;
69126;SDS011;56688;50.234;19.292;2024-01-30T08:38:58;110.10;;;48.70;;
69126;SDS011;56688;50.234;19.292;2024-01-30T08:41:30;154.30;;;68.50;;
69126;SDS011;56688;50.234;19.292;2024-01-30T08:43:57;146.80;;;73.70;;
69126;SDS011;56688;50.234;19.292;2024-01-30T08:46:24;90.90;;;50.50;;
69126;SDS011;56688;50.234;19.292;2024-01-30T08:48:52;69.40;;;39.60;;
69126;SDS011;56688;50.234;19.292;2024-01-30T08:51:20;38.60;;;20.70;;
69126;SDS011;56688;50.234;19.292;2024-01-30T08:53:46;34.70;;;17.20;;
69126;SDS011;56688;50.234;19.292;2024-01-30T08:56:13;31.90;;;16.20;;
69126;SDS011;56688;50.234;19.292;2024-01-30T08:58:43;30.10;;;16.00;;
69126;SDS011;56688;50.234;19.292;2024-01-30T09:01:09;29.60;;;16.00;;
69126;SDS011;56688;50.234;19.292;2024-01-30T09:03:37;29.00;;;16.90;;
69126;SDS011;56688;50.234;19.292;2024-01-30T09:06:10;29.60;;;17.30;;
69126;SDS011;56688;50.234;19.292;2024-01-30T09:08:38;25.10;;;15.70;;
69126;SDS011;56688;50.234;19.292;2024-01-30T09:11:09;26.60;;;16.00;;
69126;SDS011;56688;50.234;19.292;2024-01-30T09:13:37;28.30;;;16.30;;
69126;SDS011;56688;50.234;19.292;2024-01-30T09:16:04;28.10;;;15.40;;
69126;SDS011;56688;50.234;19.292;2024-01-30T09:18:32;30.50;;;15.70;;
69126;SDS011;56688;50.234;19.292;2024-01-30T09:20:59;27.50;;;15.90;;
69126;SDS011;56688;50.234;19.292;2024-01-30T09:23:27;27.30;;;15.90;;
69126;SDS011;56688;50.234;19.292;2024-01-30T09:25:55;26.10;;;16.00;;
69126;SDS011;56688;50.234;19.292;2024-01-30T09:28:22;27.70;;;15.60;;
69126;SDS011;56688;50.234;19.292;2024-01-30T09:30:52;31.00;;;15.50;;
69126;SDS011;56688;50.234;19.292;2024-01-30T09:33:19;28.70;;;16.20;;
69126;SDS011;56688;50.234;19.292;2024-01-30T09:35:46;27.10;;;15.50;;
69126;SDS011;56688;50.234;19.292;2024-01-30T09:38:13;28.60;;;15.70;;
69126;SDS011;56688;50.234;19.292;2024-01-30T09:40:40;27.20;;;17.20;;
69126;SDS011;56688;50.234;19.292;2024-01-30T09:43:09;31.70;;;16.70;;
69126;SDS011;56688;50.234;19.292;2024-01-30T09:45:44;27.80;;;16.20;;
69126;SDS011;56688;50.234;19.292;2024-01-30T09:48:14;28.90;;;16.80;;
69126;SDS011;56688;50.234;19.292;2024-01-30T09:50:42;29.90;;;17.00;;
69126;SDS011;56688;50.234;19.292;2024-01-30T09:53:09;28.00;;;17.20;;
69126;SDS011;56688;50.234;19.292;2024-01-30T09:55:38;31.10;;;16.80;;
69126;SDS011;56688;50.234;19.292;2024-01-30T09:58:09;29.70;;;17.20;;
69126;SDS011;56688;50.234;19.292;2024-01-30T10:00:39;26.40;;;16.60;;
69126;SDS011;56688;50.234;19.292;2024-01-30T10:03:05;29.40;;;16.70;;
69126;SDS011;56688;50.234;19.292;2024-01-30T10:05:32;28.00;;;15.60;;
69126;SDS011;56688;50.234;19.292;2024-01-30T10:08:01;29.00;;;16.30;;
69126;SDS011;56688;50.234;19.292;2024-01-30T10:10:33;26.80;;;15.60;;
69126;SDS011;56688;50.234;19.292;2024-01-30T10:13:01;26.70;;;15.20;;
69126;SDS011;56688;50.234;19.292;2024-01-30T10:15:31;26.00;;;15.20;;
69126;SDS011;56688;50.234;19.292;2024-01-30T10:17:58;26.80;;;15.50;;
69126;SDS011;56688;50.234;19.292;2024-01-30T10:20:25;26.60;;;15.00;;
69126;SDS011;56688;50.234;19.292;2024-01-30T10:22:52;28.80;;;16.10;;
69126;SDS011;56688;50.234;19.292;2024-01-30T10:25:19;23.20;;;14.00;;
69126;SDS011;56688;50.234;19.292;2024-01-30T10:27:52;27.90;;;15.20;;
69126;SDS011;56688;50.234;19.292;2024-01-30T10:30:22;24.20;;;14.20;;
69126;SDS011;56688;50.234;19.292;2024-01-30T10:32:49;28.10;;;14.80;;
69126;SDS011;56688;50.234;19.292;2024-01-30T10:35:16;26.80;;;15.40;;
69126;SDS011;56688;50.234;19.292;2024-01-30T10:37:44;26.70;;;15.80;;
69126;SDS011;56688;50.234;19.292;2024-01-30T10:40:14;26.90;;;15.70;;
69126;SDS011;56688;50.234;19.292;2024-01-30T10:42:43;25.30;;;15.10;;
69126;SDS011;56688;50.234;19.292;2024-01-30T10:47:40;32.00;;;15.60;;
69126;SDS011;56688;50.234;19.292;2024-01-30T10:50:10;29.60;;;16.70;;
69126;SDS011;56688;50.234;19.292;2024-01-30T10:52:39;26.90;;;15.60;;
69126;SDS011;56688;50.234;19.292;2024-01-30T10:55:08;27.00;;;15.20;;
69126;SDS011;56688;50.234;19.292;2024-01-30T10:57:36;26.30;;;15.20;;
69126;SDS011;56688;50.234;19.292;2024-01-30T11:00:06;29.00;;;16.30;;
69126;SDS011;56688;50.234;19.292;2024-01-30T11:02:38;30.40;;;17.50;;
69126;SDS011;56688;50.234;19.292;2024-01-30T11:05:07;30.60;;;16.70;;
69126;SDS011;56688;50.234;19.292;2024-01-30T11:07:35;25.90;;;15.60;;
69126;SDS011;56688;50.234;19.292;2024-01-30T11:10:03;27.10;;;15.30;;
69126;SDS011;56688;50.234;19.292;2024-01-30T11:12:31;21.70;;;14.70;;
69126;SDS011;56688;50.234;19.292;2024-01-30T11:15:02;29.00;;;15.60;;
69126;SDS011;56688;50.234;19.292;2024-01-30T11:17:41;25.70;;;15.10;;
69126;SDS011;56688;50.234;19.292;2024-01-30T11:20:10;28.00;;;15.50;;
69126;SDS011;56688;50.234;19.292;2024-01-30T11:22:40;27.00;;;14.10;;
69126;SDS011;56688;50.234;19.292;2024-01-30T11:25:10;26.70;;;14.60;;
69126;SDS011;56688;50.234;19.292;2024-01-30T11:27:39;25.00;;;15.10;;
69126;SDS011;56688;50.234;19.292;2024-01-30T11:30:07;28.00;;;15.40;;
69126;SDS011;56688;50.234;19.292;2024-01-30T11:32:35;27.50;;;15.30;;
69126;SDS011;56688;50.234;19.292;2024-01-30T11:35:03;23.50;;;14.50;;
69126;SDS011;56688;50.234;19.292;2024-01-30T11:37:33;24.00;;;15.20;;
69126;SDS011;56688;50.234;19.292;2024-01-30T11:40:05;23.90;;;13.80;;
69126;SDS011;56688;50.234;19.292;2024-01-30T11:42:33;25.80;;;15.60;;
69126;SDS011;56688;50.234;19.292;2024-01-30T11:45:03;26.40;;;14.80;;
69126;SDS011;56688;50.234;19.292;2024-01-30T11:47:31;25.10;;;14.40;;
69126;SDS011;56688;50.234;19.292;2024-01-30T11:49:58;28.00;;;13.70;;
69126;SDS011;56688;50.234;19.292;2024-01-30T11:52:27;24.90;;;13.40;;
69126;SDS011;56688;50.234;19.292;2024-01-30T11:54:55;25.80;;;13.50;;
69126;SDS011;56688;50.234;19.292;2024-01-30T11:57:22;24.30;;;14.10;;
69126;SDS011;56688;50.234;19.292;2024-01-30T11:59:49;24.50;;;14.60;;
69126;SDS011;56688;50.234;19.292;2024-01-30T12:02:16;24.70;;;15.10;;
69126;SDS011;56688;50.234;19.292;2024-01-30T12:04:44;24.80;;;14.50;;
69126;SDS011;56688;50.234;19.292;2024-01-30T12:07:11;24.70;;;14.80;;
69126;SDS011;56688;50.234;19.292;2024-01-30T12:09:39;23.70;;;14.40;;
69126;SDS011;56688;50.234;19.292;2024-01-30T12:12:06;26.90;;;14.80;;
69126;SDS011;56688;50.234;19.292;2024-01-30T12:14:39;23.20;;;14.60;;
69126;SDS011;56688;50.234;19.292;2024-01-30T12:17:06;21.10;;;13.80;;
69126;SDS011;56688;50.234;19.292;2024-01-30T12:19:35;25.70;;;14.00;;
69126;SDS011;56688;50.234;19.292;2024-01-30T12:22:02;24.00;;;13.30;;
69126;SDS011;56688;50.234;19.292;2024-01-30T12:24:29;19.50;;;11.60;;
69126;SDS011;56688;50.234;19.292;2024-01-30T12:26:59;20.40;;;12.60;;
69126;SDS011;56688;50.234;19.292;2024-01-30T12:29:27;20.70;;;11.50;;
69126;SDS011;56688;50.234;19.292;2024-01-30T12:32:00;19.00;;;10.50;;
69126;SDS011;56688;50.234;19.292;2024-01-30T12:34:27;19.10;;;10.70;;
69126;SDS011;56688;50.234;19.292;2024-01-30T12:36:56;20.60;;;11.00;;
69126;SDS011;56688;50.234;19.292;2024-01-30T12:39:25;16.40;;;9.90;;
69126;SDS011;56688;50.234;19.292;2024-01-30T12:41:52;17.60;;;10.20;;
69126;SDS011;56688;50.234;19.292;2024-01-30T12:44:19;16.50;;;9.80;;
69126;SDS011;56688;50.234;19.292;2024-01-30T12:46:46;15.20;;;9.20;;
69126;SDS011;56688;50.234;19.292;2024-01-30T12:49:16;15.90;;;8.50;;
69126;SDS011;56688;50.234;19.292;2024-01-30T12:51:44;12.40;;;7.60;;
69126;SDS011;56688;50.234;19.292;2024-01-30T12:54:12;10.30;;;6.80;;
69126;SDS011;56688;50.234;19.292;2024-01-30T12:56:40;17.30;;;6.80;;
69126;SDS011;56688;50.234;19.292;2024-01-30T12:59:07;11.90;;;7.00;;
69126;SDS011;56688;50.234;19.292;2024-01-30T13:01:33;9.80;;;6.20;;
69126;SDS011;56688;50.234;19.292;2024-01-30T13:04:00;8.80;;;5.60;;
69126;SDS011;56688;50.234;19.292;2024-01-30T13:06:27;9.00;;;6.30;;
69126;SDS011;56688;50.234;19.292;2024-01-30T13:08:54;8.60;;;5.90;;
69126;SDS011;56688;50.234;19.292;2024-01-30T13:11:21;10.80;;;6.10;;
69126;SDS011;56688;50.234;19.292;2024-01-30T13:13:48;11.50;;;5.90;;
69126;SDS011;56688;50.234;19.292;2024-01-30T13:16:15;9.30;;;5.30;;
69126;SDS011;56688;50.234;19.292;2024-01-30T13:18:43;9.90;;;5.90;;
69126;SDS011;56688;50.234;19.292;2024-01-30T13:21:11;9.10;;;5.70;;
69126;SDS011;56688;50.234;19.292;2024-01-30T13:23:38;10.90;;;5.90;;
69126;SDS011;56688;50.234;19.292;2024-01-30T13:26:05;9.50;;;6.10;;
69126;SDS011;56688;50.234;19.292;2024-01-30T13:28:33;10.10;;;5.90;;
69126;SDS011;56688;50.234;19.292;2024-01-30T13:31:01;9.30;;;5.90;;
69126;SDS011;56688;50.234;19.292;2024-01-30T13:33:28;10.00;;;5.60;;
69126;SDS011;56688;50.234;19.292;2024-01-30T13:35:55;9.10;;;6.00;;
69126;SDS011;56688;50.234;19.292;2024-01-30T13:38:23;9.60;;;6.00;;
69126;SDS011;56688;50.234;19.292;2024-01-30T13:40:50;10.30;;;5.90;;
69126;SDS011;56688;50.234;19.292;2024-01-30T13:43:17;10.20;;;5.90;;
69126;SDS011;56688;50.234;19.292;2024-01-30T13:45:44;10.00;;;5.70;;
69126;SDS011;56688;50.234;19.292;2024-01-30T13:48:12;12.70;;;6.40;;
69126;SDS011;56688;50.234;19.292;2024-01-30T13:50:39;8.50;;;5.90;;
69126;SDS011;56688;50.234;19.292;2024-01-30T13:53:06;10.60;;;5.90;;
69126;SDS011;56688;50.234;19.292;2024-01-30T13:55:33;12.40;;;6.20;;
69126;SDS011;56688;50.234;19.292;2024-01-30T13:58:01;9.10;;;6.00;;
69126;SDS011;56688;50.234;19.292;2024-01-30T14:00:28;11.60;;;5.90;;
69126;SDS011;56688;50.234;19.292;2024-01-30T14:02:55;9.10;;;5.90;;
69126;SDS011;56688;50.234;19.292;2024-01-30T14:05:24;9.60;;;6.10;;
69126;SDS011;56688;50.234;19.292;2024-01-30T14:07:52;12.80;;;6.40;;
69126;SDS011;56688;50.234;19.292;2024-01-30T14:10:20;11.10;;;6.50;;
69126;SDS011;56688;50.234;19.292;2024-01-30T14:12:47;9.70;;;6.10;;
69126;SDS011;56688;50.234;19.292;2024-01-30T14:15:15;12.30;;;6.50;;